Time;durP1;ratioP1;P1;durP2;ratioP2;P2;SDS_P1;SDS_P2;PMS_P1;PMS_P2;Temp;Humidity;BMP_temperature;BMP_pressure;BME280_temperature;BME280_humidity;BME280_pressure;Samples;Min_cycle;Max_cycle;Signal;HPM_P1;HPM_P2
2022/08/17 00:01:59;;;;;;;;;;;;;;;21.15;52.90625;101113.8;;;;-75
2022/08/17 00:06:57;;;;;;;;;;;;;;;21.12;52.86914;101125.1;;;;-74
2022/08/17 00:11:57;;;;;;;;;;;;;;;21.08;52.90918;101127.7;;;;-75
2022/08/17 00:16:57;;;;;;;;;;;;;;;21.03;52.98535;101130.6;;;;-74
2022/08/17 00:21:48;;;;;;;14.8;9.7;;;;;;;;;;;;;-74
2022/08/17 00:22:08;;;;;;;;;;;;;;;20.97;53.0332;101126.8;;;;-74
2022/08/17 00:26:58;;;;;;;;;;;;;;;20.93;53.37207;101127.7;;;;-74
2022/08/17 00:31:58;;;;;;;;;;;;;;;20.89;53.25293;101120.5;;;;-75
2022/08/17 00:36:57;;;;;;;;;;;;;;;20.84;53.39551;101118.8;;;;-74
2022/08/17 00:41:58;;;;;;;;;;;;;;;20.79;53.43555;101115.1;;;;-76
2022/08/17 00:46:58;;;;;;;;;;;;;;;20.75;53.5791;101117;;;;-74
2022/08/17 00:51:51;;;;;;;14.5;9.7;;;;;;;;;;;;;-75
2022/08/17 00:52:07;;;;;;;;;;;;;;;20.72;53.60938;101115.4;;;;-72
2022/08/17 00:57:01;;;;;;;;;;;;;;;20.67;53.55859;101105.3;;;;-75
2022/08/17 01:01:57;;;;;;;;;;;;;;;20.66;53.60156;101089.8;;;;-75
2022/08/17 01:06:58;;;;;;;;;;;;;;;20.65;53.75977;101083.8;;;;-74
2022/08/17 01:11:57;;;;;;;;;;;;;;;20.66;54.04688;101078.5;;;;-74
2022/08/17 01:16:59;;;;;;;;;;;;;;;20.67;54.3457;101075.7;;;;-75
2022/08/17 01:21:55;;;;;;;15.9;10.3;;;;;;;;;;;;;-75
2022/08/17 01:22:08;;;;;;;;;;;;;;;20.69;54.08398;101073;;;;-74
2022/08/17 01:26:57;;;;;;;;;;;;;;;20.71;53.99609;101082.8;;;;-74
2022/08/17 01:31:59;;;;;;;;;;;;;;;20.72;54.39648;101084.3;;;;-75
2022/08/17 01:36:57;;;;;;;;;;;;;;;20.74;54.46875;101083.2;;;;-75
2022/08/17 01:42:01;;;;;;;;;;;;;;;20.75;54.24023;101084.9;;;;-74
2022/08/17 01:46:58;;;;;;;;;;;;;;;20.76;54.11719;101094.8;;;;-74
2022/08/17 01:51:55;;;;;;;13.9;9.4;;;;;;;;;;;;;-74
2022/08/17 01:52:07;;;;;;;;;;;;;;;20.71;53.99512;101083.6;;;;-74
2022/08/17 01:56:58;;;;;;;;;;;;;;;20.74;53.7373;101090.9;;;;-74
2022/08/17 02:01:57;;;;;;;;;;;;;;;20.74;53.65723;101090.3;;;;-74
2022/08/17 02:06:57;;;;;;;;;;;;;;;20.73;53.49609;101091;;;;-74
2022/08/17 02:11:57;;;;;;;;;;;;;;;20.73;53.32617;101091.6;;;;-75
2022/08/17 02:16:57;;;;;;;;;;;;;;;20.71;53.57422;101103.5;;;;-76
2022/08/17 02:21:57;;;;;;;;;;;;;;;20.68;53.20508;101096.2;;;;-74
2022/08/17 02:22:07;;;;;;;11.9;8.9;;;;;;;;;;;;;-74
2022/08/17 02:26:57;;;;;;;;;;;;;;;20.64;53.24707;101093.9;;;;-74
2022/08/17 02:32:00;;;;;;;;;;;;;;;20.62;53.20898;101098.1;;;;-74
2022/08/17 02:36:57;;;;;;;;;;;;;;;20.61;53.28711;101101.3;;;;-74
2022/08/17 02:42:02;;;;;;;;;;;;;;;20.59;53.19434;101104.8;;;;-75
2022/08/17 02:46:57;;;;;;;;;;;;;;;20.62;53.15234;101118.1;;;;-74
2022/08/17 02:51:59;;;;;;;;;;;;;;;20.62;55.34277;101172.1;;;;-75
2022/08/17 02:52:09;;;;;;;13.7;9.5;;;;;;;;;;;;;-75
2022/08/17 02:56:57;;;;;;;;;;;;;;;20.72;58.04688;101183.1;;;;-74
2022/08/17 03:01:57;;;;;;;;;;;;;;;20.78;60.00293;101182.4;;;;-74
2022/08/17 03:06:58;;;;;;;;;;;;;;;20.8;58.51172;101204.2;;;;-75
2022/08/17 03:11:57;;;;;;;;;;;;;;;20.83;60.52441;101220;;;;-74
2022/08/17 03:16:57;;;;;;;;;;;;;;;20.88;60.1416;101216.4;;;;-76
2022/08/17 03:21:57;;;;;;;;;;;;;;;20.86;59.375;101227.7;;;;-75
2022/08/17 03:22:07;;;;;;;17.3;10.5;;;;;;;;;;;;;-75
2022/08/17 03:26:57;;;;;;;;;;;;;;;20.8;58.61621;101225.5;;;;-76
2022/08/17 03:31:57;;;;;;;;;;;;;;;20.72;58.69629;101225.5;;;;-75
2022/08/17 03:36:58;;;;;;;;;;;;;;;20.63;58.66309;101223.3;;;;-76
2022/08/17 03:41:58;;;;;;;;;;;;;;;20.57;58.39258;101230.3;;;;-78
2022/08/17 03:57:01;;;;;;;;;;;;;;;20.39;58.25488;101216.4;;;;-76
2022/08/17 04:01:58;;;;;;;;;;;;;;;20.35;58.31738;101216.8;;;;-75
2022/08/17 04:06:58;;;;;;;;;;;;;;;20.31;58.17578;101223.8;;;;-77
2022/08/17 04:11:57;;;;;;;;;;;;;;;20.29;58.15137;101209.9;;;;-76
2022/08/17 04:16:57;;;;;;;;;;;;;;;20.28;58.20605;101196.8;;;;-76
2022/08/17 04:21:57;;;;;;;;;;;;;;;20.28;58.27344;101188.3;;;;-78
2022/08/17 04:22:10;;;;;;;9.5;6;;;;;;;;;;;;;-75
2022/08/17 04:26:57;;;;;;;;;;;;;;;20.27;58.47852;101168.5;;;;-75
2022/08/17 04:31:57;;;;;;;;;;;;;;;20.28;58.67188;101165.3;;;;-76
2022/08/17 04:36:57;;;;;;;;;;;;;;;20.29;58.69531;101173.4;;;;-76
2022/08/17 04:42:15;;;;;;;;;;;;;;;20.3;58.58398;101181.5;;;;-77
2022/08/17 04:46:58;;;;;;;;;;;;;;;20.3;58.74414;101178.6;;;;-77
2022/08/17 04:51:58;;;;;;;;;;;;;;;20.29;59.1748;101167.8;;;;-76
2022/08/17 04:52:13;;;;;;;13.7;8.1;;;;;;;;;;;;;-78
2022/08/17 04:56:57;;;;;;;;;;;;;;;20.29;59.3457;101169.4;;;;-76
2022/08/17 05:01:57;;;;;;;;;;;;;;;20.3;59.7793;101179.5;;;;-76
2022/08/17 05:06:57;;;;;;;;;;;;;;;20.3;59.8252;101190.1;;;;-75
2022/08/17 05:11:58;;;;;;;;;;;;;;;20.3;60.05273;101176.9;;;;-78
2022/08/17 05:16:57;;;;;;;;;;;;;;;20.29;60.2793;101159.9;;;;-75
2022/08/17 05:21:57;;;;;;;;;;;;;;;20.29;60.05176;101147.6;;;;-75
2022/08/17 05:22:16;;;;;;;13.3;8.8;;;;;;;;;;;;;-78
2022/08/17 05:26:58;;;;;;;;;;;;;;;20.29;60.20117;101141.2;;;;-77
2022/08/17 05:31:58;;;;;;;;;;;;;;;20.29;60.48438;101146.8;;;;-76
2022/08/17 05:36:58;;;;;;;;;;;;;;;20.29;60.74707;101162.5;;;;-76
2022/08/17 05:41:57;;;;;;;;;;;;;;;20.29;60.35938;101185.7;;;;-76
2022/08/17 05:46:58;;;;;;;;;;;;;;;20.29;60.25684;101194.1;;;;-77
2022/08/17 05:52:14;;;;;;;;;;;;;;;20.29;60.06348;101155.8;;;;-77
2022/08/17 05:52:34;;;;;;;9.4;6.1;;;;;;;;;;;;;-77
2022/08/17 05:57:08;;;;;;;;;;;;;;;20.28;60.59668;101149.8;;;;-76
2022/08/17 06:02:01;;;;;;;;;;;;;;;20.29;60.1416;101150.8;;;;-76
2022/08/17 06:07:00;;;;;;;;;;;;;;;20.3;60.17773;101145.5;;;;-75
2022/08/17 06:12:02;;;;;;;;;;;;;;;20.3;60.16699;101143.2;;;;-75
2022/08/17 06:16:59;;;;;;;;;;;;;;;20.33;60.29395;101138.7;;;;-76
2022/08/17 06:21:57;;;;;;;;;;;;;;;20.34;60.34375;101143.7;;;;-76
2022/08/17 06:22:26;;;;;;;9.4;4.8;;;;;;;;;;;;;-75
2022/08/17 06:26:58;;;;;;;;;;;;;;;20.38;60.2793;101147.6;;;;-75
2022/08/17 06:31:57;;;;;;;;;;;;;;;20.44;60.45801;101165.1;;;;-75
2022/08/17 06:37:01;;;;;;;;;;;;;;;20.49;60.14844;101196.4;;;;-77
2022/08/17 06:42:04;;;;;;;;;;;;;;;20.54;59.83398;101215.9;;;;-75
2022/08/17 06:47:01;;;;;;;;;;;;;;;20.56;59.72266;101222.8;;;;-76
2022/08/17 06:52:03;;;;;;;;;;;;;;;20.57;59.59961;101212.8;;;;-74
2022/08/17 06:52:26;;;;;;;5.9;4;;;;;;;;;;;;;-76
2022/08/17 06:57:00;;;;;;;;;;;;;;;20.58;59.52148;101209;;;;-76
2022/08/17 07:01:58;;;;;;;;;;;;;;;20.61;59.61621;101196.2;;;;-75
2022/08/17 07:08:00;;;;;;;;;;;;;;;20.66;59.71387;101199.3;;;;-75
2022/08/17 07:11:59;;;;;;;;;;;;;;;20.71;59.74512;101217.3;;;;-75
2022/08/17 07:16:59;;;;;;;;;;;;;;;20.74;59.99902;101226.6;;;;-75
2022/08/17 07:22:06;;;;;;;;;;;;;;;20.75;60.01172;101235.3;;;;-75
2022/08/17 07:22:32;;;;;;;6.9;4.4;;;;;;;;;;;;;-77
2022/08/17 07:27:09;;;;;;;;;;;;;;;20.75;59.93164;101241.5;;;;-77
2022/08/17 07:31:58;;;;;;;;;;;;;;;20.74;60.07715;101243.8;;;;-76
2022/08/17 07:37:04;;;;;;;;;;;;;;;20.74;60.1582;101246.2;;;;-75
2022/08/17 07:42:04;;;;;;;;;;;;;;;20.74;60.08887;101235.2;;;;-75
2022/08/17 07:52:02;;;;;;;;;;;;;;;20.8;60.17578;101235.3;;;;-76
2022/08/17 07:52:36;;;;;;;7.6;4.1;;;;;;;;;;;;;-76
2022/08/17 07:56:59;;;;;;;;;;;;;;;20.83;59.9082;101239.8;;;;-77
2022/08/17 08:02:14;;;;;;;;;;;;;;;20.88;59.96094;101235.2;;;;-77
2022/08/17 08:07:00;;;;;;;;;;;;;;;20.94;60.41309;101227;;;;-75
2022/08/17 08:11:57;;;;;;;;;;;;;;;21.01;60.74219;101219.2;;;;-76
2022/08/17 08:17:03;;;;;;;;;;;;;;;21.12;61.46289;101226.6;;;;-76
2022/08/17 08:22:01;;;;;;;;;;;;;;;21.23;61.30664;101228.6;;;;-75
2022/08/17 08:22:40;;;;;;;6.1;4;;;;;;;;;;;;;-74
2022/08/17 08:26:59;;;;;;;;;;;;;;;21.38;60.66699;101235;;;;-75
2022/08/17 08:32:04;;;;;;;;;;;;;;;21.54;60.5166;101244.2;;;;-75
2022/08/17 08:37:02;;;;;;;;;;;;;;;21.68;60.31934;101242;;;;-75
2022/08/17 08:42:04;;;;;;;;;;;;;;;21.84;60.69434;101238.6;;;;-75
2022/08/17 08:47:03;;;;;;;;;;;;;;;22.03;60.08008;101237.6;;;;-76
2022/08/17 08:52:00;;;;;;;;;;;;;;;22.22;60.50488;101234.1;;;;-75
2022/08/17 08:52:51;;;;;;;6.4;4.6;;;;;;;;;;;;;-77
2022/08/17 08:57:00;;;;;;;;;;;;;;;22.36;60.65137;101231;;;;-72
2022/08/17 09:02:03;;;;;;;;;;;;;;;22.51;61.32324;101232.7;;;;-74
2022/08/17 09:07:01;;;;;;;;;;;;;;;22.61;61.11914;101230.5;;;;-75
2022/08/17 09:12:03;;;;;;;;;;;;;;;22.69;60.78613;101226.3;;;;-75
2022/08/17 09:17:00;;;;;;;;;;;;;;;22.76;60.77441;101242.4;;;;-75
2022/08/17 09:21:59;;;;;;;;;;;;;;;22.8;61.15527;101242;;;;-76
2022/08/17 09:22:44;;;;;;;11.5;7.6;;;;;;;;;;;;;-75
2022/08/17 09:27:00;;;;;;;;;;;;;;;22.81;61.3291;101246.6;;;;-75
2022/08/17 09:32:00;;;;;;;;;;;;;;;22.79;61.0166;101243.4;;;;-75
2022/08/17 09:37:01;;;;;;;;;;;;;;;22.76;60.75;101249.3;;;;-76
2022/08/17 09:42:01;;;;;;;;;;;;;;;22.76;60.42969;101253.9;;;;-77
2022/08/17 09:47:01;;;;;;;;;;;;;;;22.76;60.0752;101258.4;;;;-76
2022/08/17 09:52:01;;;;;;;;;;;;;;;22.77;59.84668;101264.8;;;;-76
2022/08/17 09:52:45;;;;;;;10.3;7.4;;;;;;;;;;;;;-77
2022/08/17 09:57:03;;;;;;;;;;;;;;;22.8;59.55273;101269.5;;;;-77
2022/08/17 10:02:05;;;;;;;;;;;;;;;22.85;59.52637;101260.9;;;;-76
2022/08/17 10:07:04;;;;;;;;;;;;;;;22.92;59.4082;101262.4;;;;-76
2022/08/17 10:17:03;;;;;;;;;;;;;;;23.16;59.1084;101257.7;;;;-78
2022/08/17 10:26:59;;;;;;;;;;;;;;;23.45;58.25293;101286.7;;;;-78
2022/08/17 10:32:02;;;;;;;;;;;;;;;23.52;57.71094;101306.9;;;;-76
2022/08/17 10:37:02;;;;;;;;;;;;;;;23.53;57.47168;101313;;;;-76
2022/08/17 10:41:59;;;;;;;;;;;;;;;23.49;57.68359;101319.6;;;;-74
2022/08/17 10:47:06;;;;;;;;;;;;;;;23.42;57.53711;101324.1;;;;-74
2022/08/17 10:51:58;;;;;;;;;;;;;;;23.32;57.61719;101326.7;;;;-75
2022/08/17 10:52:53;;;;;;;8.7;6.1;;;;;;;;;;;;;-75
2022/08/17 10:56:58;;;;;;;;;;;;;;;23.22;57.69434;101296.5;;;;-75
2022/08/17 11:02:11;;;;;;;;;;;;;;;23.06;57.91504;101259.5;;;;-76
2022/08/17 11:07:04;;;;;;;;;;;;;;;22.89;58.35254;101230.8;;;;-77
2022/08/17 11:12:06;;;;;;;;;;;;;;;22.73;58.96094;101229;;;;-75
2022/08/17 11:17:05;;;;;;;;;;;;;;;22.53;59.0957;101234.9;;;;-75
2022/08/17 11:22:04;;;;;;;;;;;;;;;22.33;59.49023;101244.2;;;;-77
2022/08/17 11:23:08;;;;;;;10.5;7.4;;;;;;;;;;;;;-75
2022/08/17 11:27:11;;;;;;;;;;;;;;;22.17;59.98438;101241;;;;-75
2022/08/17 11:32:06;;;;;;;;;;;;;;;22.04;60.60645;101242;;;;-76
2022/08/17 11:37:11;;;;;;;;;;;;;;;21.95;60.82129;101262.3;;;;-76
2022/08/17 11:42:03;;;;;;;;;;;;;;;21.89;60.64453;101280.4;;;;-78
2022/08/17 11:52:11;;;;;;;;;;;;;;;21.91;61.0918;101315.1;;;;-77
2022/08/17 11:52:59;;;;;;;12.4;7.7;;;;;;;;;;;;;-75
2022/08/17 12:07:00;;;;;;;;;;;;;;;22.08;61.0459;101345.6;;;;-77
2022/08/17 12:12:02;;;;;;;;;;;;;;;22.14;61.24902;101342.1;;;;-75
2022/08/17 12:17:09;;;;;;;;;;;;;;;22.18;61.15234;101345.3;;;;-77
2022/08/17 12:21:59;;;;;;;;;;;;;;;22.24;61.1709;101352.5;;;;-75
2022/08/17 12:23:06;;;;;;;10.3;7.1;;;;;;;;;;;;;-78
2022/08/17 12:26:59;;;;;;;;;;;;;;;22.27;61.00391;101350.9;;;;-78
2022/08/17 12:31:57;;;;;;;;;;;;;;;22.27;61.34668;101352.4;;;;-76
2022/08/17 12:37:00;;;;;;;;;;;;;;;22.23;61.41016;101355;;;;-75
2022/08/17 12:41:59;;;;;;;;;;;;;;;22.17;61.41211;101361.2;;;;-75
2022/08/17 12:47:03;;;;;;;;;;;;;;;22.08;61.35547;101364.2;;;;-76
2022/08/17 12:52:03;;;;;;;;;;;;;;;21.98;61.44434;101364.8;;;;-76
2022/08/17 12:53:06;;;;;;;10.7;6.9;;;;;;;;;;;;;-76
2022/08/17 12:57:02;;;;;;;;;;;;;;;21.9;61.47949;101360.6;;;;-75
2022/08/17 13:02:00;;;;;;;;;;;;;;;21.84;61.37891;101345.9;;;;-75
2022/08/17 13:06:57;;;;;;;;;;;;;;;21.81;61.09961;101327.5;;;;-75
2022/08/17 13:12:00;;;;;;;;;;;;;;;21.78;61.44043;101311.4;;;;-76
2022/08/17 13:17:03;;;;;;;;;;;;;;;21.77;61.63184;101318.2;;;;-77
2022/08/17 13:21:59;;;;;;;;;;;;;;;21.76;61.58594;101316.9;;;;-76
2022/08/17 13:23:09;;;;;;;12;7.4;;;;;;;;;;;;;-77
2022/08/17 13:27:07;;;;;;;;;;;;;;;21.73;61.55957;101314.8;;;;-76
2022/08/17 13:32:10;;;;;;;;;;;;;;;21.68;61.78027;101306.9;;;;-78
2022/08/17 13:37:10;;;;;;;;;;;;;;;21.65;62.04883;101294.3;;;;-76
2022/08/17 13:40:25;;;;;;;;;;;;;;;21.88;61.76074;101292.2;;;;-74
2022/08/17 13:44:25;;;;;;;;;;;;;;;21.58;62.57617;101284.9;;;;-79
2022/08/17 13:49:10;;;;;;;;;;;;;;;21.51;62.9082;101270.8;;;;-78
2022/08/17 13:58:55;;;;;;;;;;;;;;;21.79;62.82227;101265.1;;;;-75
2022/08/17 14:17:19;;;;;;;;;;;;;;;21.68;64.21973;101242.6;;;;-78
2022/08/17 14:22:25;;;;;;;;;;;;;;;21.69;64.44922;101233.4;;;;-78
2022/08/17 14:23:16;;;;;;;9.3;6.8;;;;;;;;;;;;;-79
2022/08/17 14:25:40;;;;;;;;;;;;;;;22.05;64.07813;101231.3;;;;-78
2022/08/17 14:32:56;;;;;;;;;;;;;;;21.7;64.33789;101243.9;;;;-77
2022/08/17 14:37:56;;;;;;;;;;;;;;;21.73;63.78418;101242.2;;;;-77
2022/08/17 14:46:53;;;;;;;;;;;;;;;21.8;63.5293;101241.6;;;;-79
2022/08/17 14:51:33;;;;;;;;;;;;;;;21.83;63.38672;101244;;;;-76
2022/08/17 14:53:19;;;;;;;8.6;5.8;;;;;;;;;;;;;-77
2022/08/17 14:56:32;;;;;;;;;;;;;;;21.86;63.43652;101244.3;;;;-76
2022/08/17 15:01:40;;;;;;;;;;;;;;;21.89;63.17871;101246.6;;;;-77
2022/08/17 15:06:32;;;;;;;;;;;;;;;21.93;62.95605;101242.9;;;;-76
2022/08/17 15:11:33;;;;;;;;;;;;;;;21.97;62.82422;101239.2;;;;-76
2022/08/17 15:16:34;;;;;;;;;;;;;;;22.01;62.71582;101237.2;;;;-76
2022/08/17 15:21:32;;;;;;;;;;;;;;;22.06;62.7334;101233.8;;;;-76
2022/08/17 15:23:25;;;;;;;9;5.9;;;;;;;;;;;;;-75
2022/08/17 15:26:33;;;;;;;;;;;;;;;22.11;62.77539;101230.6;;;;-75
2022/08/17 15:31:32;;;;;;;;;;;;;;;22.14;62.69922;101229.6;;;;-76
2022/08/17 15:36:32;;;;;;;;;;;;;;;22.18;62.78516;101231;;;;-76
2022/08/17 15:41:33;;;;;;;;;;;;;;;22.19;62.5127;101237.1;;;;-76
2022/08/17 15:46:32;;;;;;;;;;;;;;;22.2;62.60449;101241;;;;-76
2022/08/17 15:51:33;;;;;;;;;;;;;;;22.18;62.5918;101244.4;;;;-76
2022/08/17 15:53:24;;;;;;;10.3;5.4;;;;;;;;;;;;;-74
2022/08/17 15:56:34;;;;;;;;;;;;;;;22.16;62.34766;101243.3;;;;-75
2022/08/17 16:01:33;;;;;;;;;;;;;;;22.13;62.13867;101241.6;;;;-75
2022/08/17 16:06:33;;;;;;;;;;;;;;;22.12;62;101238.6;;;;-75
2022/08/17 16:11:33;;;;;;;;;;;;;;;22.1;61.87207;101232.5;;;;-76
2022/08/17 16:16:35;;;;;;;;;;;;;;;22.08;61.93652;101237.1;;;;-75
2022/08/17 16:21:32;;;;;;;;;;;;;;;22.07;61.83398;101237.4;;;;-77
2022/08/17 16:23:27;;;;;;;8;5.2;;;;;;;;;;;;;-75
2022/08/17 16:26:36;;;;;;;;;;;;;;;22.07;61.86719;101245.3;;;;-76
2022/08/17 16:31:32;;;;;;;;;;;;;;;22.06;61.54785;101257.9;;;;-74
2022/08/17 16:36:33;;;;;;;;;;;;;;;22.05;61.60156;101263.8;;;;-77
2022/08/17 16:41:49;;;;;;;;;;;;;;;22;61.45898;101259.8;;;;-76
2022/08/17 16:46:32;;;;;;;;;;;;;;;21.95;61.51855;101261.5;;;;-74
2022/08/17 16:51:32;;;;;;;;;;;;;;;21.9;61.52344;101262.8;;;;-79
2022/08/17 16:53:31;;;;;;;6.9;4.5;;;;;;;;;;;;;-78
2022/08/17 16:56:34;;;;;;;;;;;;;;;21.84;61.48145;101269.7;;;;-82
2022/08/17 17:01:33;;;;;;;;;;;;;;;21.78;61.47266;101271.2;;;;-75
2022/08/17 17:06:37;;;;;;;;;;;;;;;21.72;61.53418;101271.2;;;;-75
2022/08/17 17:11:35;;;;;;;;;;;;;;;21.66;61.75488;101276.2;;;;-77
2022/08/17 17:16:43;;;;;;;;;;;;;;;21.61;61.95313;101280.5;;;;-76
2022/08/17 17:21:36;;;;;;;;;;;;;;;21.55;62.04688;101279.1;;;;-76
2022/08/17 17:23:40;;;;;;;7;4.9;;;;;;;;;;;;;-74
2022/08/17 17:26:43;;;;;;;;;;;;;;;21.5;62.02734;101279;;;;-77
2022/08/17 17:31:37;;;;;;;;;;;;;;;21.43;62.04004;101271.3;;;;-76
2022/08/17 17:36:37;;;;;;;;;;;;;;;21.39;62.36719;101276.5;;;;-74
2022/08/17 17:41:35;;;;;;;;;;;;;;;21.33;62.38086;101281.9;;;;-75
2022/08/17 17:46:36;;;;;;;;;;;;;;;21.28;62.33887;101290.2;;;;-74
2022/08/17 17:51:39;;;;;;;;;;;;;;;21.23;62.32129;101299.7;;;;-74
2022/08/17 17:53:40;;;;;;;8.8;4.9;;;;;;;;;;;;;-74
2022/08/17 17:56:34;;;;;;;;;;;;;;;21.19;62.32813;101302.9;;;;-76
2022/08/17 18:01:41;;;;;;;;;;;;;;;21.15;62.07031;101304.5;;;;-75
2022/08/17 18:06:38;;;;;;;;;;;;;;;21.1;62.01855;101311.2;;;;-74
2022/08/17 18:11:48;;;;;;;;;;;;;;;21.06;62.09375;101321;;;;-75
2022/08/17 18:16:34;;;;;;;;;;;;;;;21.02;62.15527;101325.9;;;;-75
2022/08/17 18:21:42;;;;;;;;;;;;;;;20.98;62.22949;101328.6;;;;-75
2022/08/17 18:23:51;;;;;;;7.2;4.4;;;;;;;;;;;;;-75
2022/08/17 18:26:47;;;;;;;;;;;;;;;20.94;62.25977;101328.1;;;;-75
2022/08/17 18:31:33;;;;;;;;;;;;;;;20.91;62.26563;101322.3;;;;-76
2022/08/17 18:36:35;;;;;;;;;;;;;;;20.88;62.36426;101335.9;;;;-75
2022/08/17 18:41:42;;;;;;;;;;;;;;;20.85;62.21094;101333.8;;;;-75
2022/08/17 18:46:35;;;;;;;;;;;;;;;20.81;62.26465;101334.2;;;;-75
2022/08/17 18:51:39;;;;;;;;;;;;;;;20.77;62.2002;101330.6;;;;-75
2022/08/17 18:53:44;;;;;;;6.9;4.4;;;;;;;;;;;;;-74
2022/08/17 18:56:35;;;;;;;;;;;;;;;20.73;62.30957;101334.3;;;;-76
2022/08/17 19:01:39;;;;;;;;;;;;;;;20.69;62.32617;101336.2;;;;-77
2022/08/17 19:06:34;;;;;;;;;;;;;;;20.65;62.10352;101335.2;;;;-73
2022/08/17 19:11:34;;;;;;;;;;;;;;;20.59;62.08496;101342;;;;-75
2022/08/17 19:16:42;;;;;;;;;;;;;;;20.56;62.17188;101344.7;;;;-75
2022/08/17 19:21:36;;;;;;;;;;;;;;;20.5;62.11719;101336.4;;;;-76
2022/08/17 19:23:48;;;;;;;5.6;4;;;;;;;;;;;;;-76
2022/08/17 19:26:38;;;;;;;;;;;;;;;20.45;62.16699;101340;;;;-75
2022/08/17 19:31:33;;;;;;;;;;;;;;;20.41;62.07129;101344.7;;;;-74
2022/08/17 19:36:38;;;;;;;;;;;;;;;20.35;62.10742;101350.8;;;;-77
2022/08/17 19:41:36;;;;;;;;;;;;;;;20.3;62.08984;101360.7;;;;-76
2022/08/17 19:46:41;;;;;;;;;;;;;;;20.25;62.17285;101364.4;;;;-75
2022/08/17 19:51:37;;;;;;;;;;;;;;;20.2;62.24609;101368.2;;;;-73
2022/08/17 19:53:52;;;;;;;6.9;4;;;;;;;;;;;;;-75
2022/08/17 19:56:40;;;;;;;;;;;;;;;20.16;62.19434;101381.4;;;;-73
2022/08/17 20:01:37;;;;;;;;;;;;;;;20.12;62.09863;101385.8;;;;-75
2022/08/17 20:06:35;;;;;;;;;;;;;;;20.09;62.09473;101389.3;;;;-76
2022/08/17 20:11:36;;;;;;;;;;;;;;;20.07;62.28516;101390.1;;;;-76
2022/08/17 20:16:34;;;;;;;;;;;;;;;20.04;62.08789;101386.4;;;;-74
2022/08/17 20:21:35;;;;;;;;;;;;;;;20.02;62.12012;101385;;;;-74
2022/08/17 20:23:54;;;;;;;6.4;3.7;;;;;;;;;;;;;-76
2022/08/17 20:26:38;;;;;;;;;;;;;;;20;62.18457;101381.7;;;;-75
2022/08/17 20:31:44;;;;;;;;;;;;;;;19.97;62.1123;101379.3;;;;-76
2022/08/17 20:36:35;;;;;;;;;;;;;;;19.93;62.33496;101368.1;;;;-75
2022/08/17 20:41:33;;;;;;;;;;;;;;;19.89;62.25977;101367;;;;-73
2022/08/17 20:46:43;;;;;;;;;;;;;;;19.85;62.19727;101365.3;;;;-74
2022/08/17 20:51:38;;;;;;;;;;;;;;;19.79;62.21191;101363.2;;;;-74
2022/08/17 20:54:21;;;;;;;7.3;3.8;;;;;;;;;;;;;-75
2022/08/17 20:56:43;;;;;;;;;;;;;;;19.72;62.41797;101357.2;;;;-75
2022/08/17 21:01:42;;;;;;;;;;;;;;;19.68;62.40039;101355.1;;;;-76
2022/08/17 21:06:32;;;;;;;;;;;;;;;19.62;62.59668;101359.8;;;;-76
2022/08/17 21:11:46;;;;;;;;;;;;;;;19.58;63.1123;101360.1;;;;-75
2022/08/17 21:16:40;;;;;;;;;;;;;;;19.52;62.78809;101360;;;;-75
2022/08/17 21:21:40;;;;;;;;;;;;;;;19.48;62.86035;101357.4;;;;-75
2022/08/17 21:24:07;;;;;;;6.6;3.7;;;;;;;;;;;;;-75
2022/08/17 21:26:35;;;;;;;;;;;;;;;19.44;62.91113;101360.5;;;;-75
2022/08/17 21:31:40;;;;;;;;;;;;;;;19.39;62.93945;101360.8;;;;-74
2022/08/17 21:36:35;;;;;;;;;;;;;;;19.34;63.0459;101368.5;;;;-77
2022/08/17 21:41:35;;;;;;;;;;;;;;;19.31;63.01855;101369.9;;;;-75
2022/08/17 21:46:38;;;;;;;;;;;;;;;19.29;63.0498;101375.3;;;;-76
2022/08/17 21:51:33;;;;;;;;;;;;;;;19.25;63.19238;101377.5;;;;-76
2022/08/17 21:54:02;;;;;;;7.2;3.4;;;;;;;;;;;;;-77
2022/08/17 21:56:35;;;;;;;;;;;;;;;19.22;63.37012;101381.3;;;;-77
2022/08/17 22:01:42;;;;;;;;;;;;;;;19.24;63.41602;101391.9;;;;-76
2022/08/17 22:06:38;;;;;;;;;;;;;;;19.24;63.34961;101403.9;;;;-76
2022/08/17 22:11:33;;;;;;;;;;;;;;;19.26;63.0791;101412.8;;;;-76
2022/08/17 22:16:33;;;;;;;;;;;;;;;19.26;63.12402;101422.1;;;;-76
2022/08/17 22:21:32;;;;;;;;;;;;;;;19.26;63.02344;101421;;;;-76
2022/08/17 22:24:07;;;;;;;5.6;3.4;;;;;;;;;;;;;-76
2022/08/17 22:26:42;;;;;;;;;;;;;;;19.27;62.87695;101414.8;;;;-76
2022/08/17 22:31:42;;;;;;;;;;;;;;;19.29;62.77734;101416.4;;;;-77
2022/08/17 22:36:35;;;;;;;;;;;;;;;19.3;62.79004;101420.1;;;;-75
2022/08/17 22:41:34;;;;;;;;;;;;;;;19.31;62.64355;101418.1;;;;-76
2022/08/17 22:46:33;;;;;;;;;;;;;;;19.32;62.62305;101421.3;;;;-75
2022/08/17 22:51:33;;;;;;;;;;;;;;;19.31;62.64355;101416;;;;-75
2022/08/17 23:01:34;;;;;;;;;;;;;;;19.33;62.52148;101413.8;;;;-75
2022/08/17 23:06:33;;;;;;;;;;;;;;;19.34;62.3418;101408.8;;;;-76
2022/08/17 23:11:36;;;;;;;;;;;;;;;19.34;62.43359;101416.7;;;;-75
2022/08/17 23:16:32;;;;;;;;;;;;;;;19.34;62.35254;101415.7;;;;-74
2022/08/17 23:21:35;;;;;;;;;;;;;;;19.33;62.26074;101415.6;;;;-74
2022/08/17 23:24:08;;;;;;;4.8;3.2;;;;;;;;;;;;;-74
2022/08/17 23:26:34;;;;;;;;;;;;;;;19.32;62.30566;101421.9;;;;-75
2022/08/17 23:31:33;;;;;;;;;;;;;;;19.31;62.33789;101418.7;;;;-76
2022/08/17 23:36:32;;;;;;;;;;;;;;;19.29;62.33496;101418.6;;;;-75
2022/08/17 23:41:35;;;;;;;;;;;;;;;19.26;62.46582;101415.7;;;;-74
2022/08/17 23:46:33;;;;;;;;;;;;;;;19.23;62.47363;101408.9;;;;-74
2022/08/17 23:51:34;;;;;;;;;;;;;;;19.2;62.48145;101411.5;;;;-75
2022/08/17 23:54:15;;;;;;;5.5;3.1;;;;;;;;;;;;;-75
2022/08/17 23:56:36;;;;;;;;;;;;;;;19.18;62.50098;101408.6;;;;-73
